sensor_id;sensor_type;location;lat;lon;timestamp;temperature;humidity
70830;SHT30;58451;51.550;7.208;2024-03-23T00:54:03;7.55;79.85
70830;SHT30;58451;51.550;7.208;2024-03-23T00:55:35;7.54;79.83
70830;SHT30;58451;51.550;7.208;2024-03-23T00:57:07;7.53;79.80
70830;SHT30;58451;51.550;7.208;2024-03-23T00:58:39;7.53;79.80
70830;SHT30;58451;51.550;7.208;2024-03-23T01:00:11;7.51;79.80
70830;SHT30;58451;51.550;7.208;2024-03-23T01:01:43;7.51;79.82
70830;SHT30;58451;51.550;7.208;2024-03-23T01:03:15;7.51;79.75
70830;SHT30;58451;51.550;7.208;2024-03-23T01:04:47;7.50;79.80
70830;SHT30;58451;51.550;7.208;2024-03-23T01:06:22;7.49;79.78
70830;SHT30;58451;51.550;7.208;2024-03-23T01:07:54;7.48;79.73
70830;SHT30;58451;51.550;7.208;2024-03-23T01:09:26;7.48;79.72
70830;SHT30;58451;51.550;7.208;2024-03-23T01:10:58;7.46;79.67
70830;SHT30;58451;51.550;7.208;2024-03-23T01:12:33;7.47;79.62
70830;SHT30;58451;51.550;7.208;2024-03-23T01:14:05;7.45;79.58
70830;SHT30;58451;51.550;7.208;2024-03-23T01:15:37;7.45;79.52
70830;SHT30;58451;51.550;7.208;2024-03-23T01:17:09;7.44;79.52
70830;SHT30;58451;51.550;7.208;2024-03-23T01:18:41;7.44;79.45
70830;SHT30;58451;51.550;7.208;2024-03-23T01:20:14;7.44;79.40
70830;SHT30;58451;51.550;7.208;2024-03-23T01:21:47;7.43;79.40
70830;SHT30;58451;51.550;7.208;2024-03-23T01:23:20;7.43;79.32
70830;SHT30;58451;51.550;7.208;2024-03-23T01:24:52;7.41;79.23
70830;SHT30;58451;51.550;7.208;2024-03-23T01:26:24;7.39;79.17
70830;SHT30;58451;51.550;7.208;2024-03-23T01:27:56;7.40;79.10
70830;SHT30;58451;51.550;7.208;2024-03-23T01:29:28;7.38;78.90
70830;SHT30;58451;51.550;7.208;2024-03-23T01:31:00;7.35;78.87
70830;SHT30;58451;51.550;7.208;2024-03-23T01:32:32;7.35;78.90
70830;SHT30;58451;51.550;7.208;2024-03-23T01:34:03;7.34;78.90
70830;SHT30;58451;51.550;7.208;2024-03-23T01:35:36;7.34;78.88
70830;SHT30;58451;51.550;7.208;2024-03-23T01:37:07;7.33;78.85
70830;SHT30;58451;51.550;7.208;2024-03-23T01:38:39;7.31;78.75
70830;SHT30;58451;51.550;7.208;2024-03-23T01:40:11;7.29;78.72
70830;SHT30;58451;51.550;7.208;2024-03-23T01:41:44;7.27;78.62
70830;SHT30;58451;51.550;7.208;2024-03-23T01:43:16;7.26;78.57
70830;SHT30;58451;51.550;7.208;2024-03-23T01:44:49;7.25;78.53
70830;SHT30;58451;51.550;7.208;2024-03-23T01:46:21;7.24;78.50
70830;SHT30;58451;51.550;7.208;2024-03-23T01:47:53;7.21;78.48
70830;SHT30;58451;51.550;7.208;2024-03-23T01:49:25;7.18;78.43
70830;SHT30;58451;51.550;7.208;2024-03-23T01:50:57;7.16;78.40
70830;SHT30;58451;51.550;7.208;2024-03-23T01:52:30;7.11;78.32
70830;SHT30;58451;51.550;7.208;2024-03-23T01:54:03;7.09;78.30
70830;SHT30;58451;51.550;7.208;2024-03-23T01:55:35;7.07;78.30
70830;SHT30;58451;51.550;7.208;2024-03-23T01:57:10;7.03;78.30
70830;SHT30;58451;51.550;7.208;2024-03-23T01:58:41;7.03;78.37
70830;SHT30;58451;51.550;7.208;2024-03-23T02:00:14;7.02;78.33
70830;SHT30;58451;51.550;7.208;2024-03-23T02:01:46;7.01;78.33
70830;SHT30;58451;51.550;7.208;2024-03-23T02:03:21;7.01;78.50
70830;SHT30;58451;51.550;7.208;2024-03-23T02:04:58;7.01;78.55
70830;SHT30;58451;51.550;7.208;2024-03-23T02:06:30;7.01;78.52
70830;SHT30;58451;51.550;7.208;2024-03-23T02:08:02;7.00;78.52
70830;SHT30;58451;51.550;7.208;2024-03-23T02:09:34;7.01;78.58
70830;SHT30;58451;51.550;7.208;2024-03-23T02:11:06;7.01;78.67
70830;SHT30;58451;51.550;7.208;2024-03-23T02:12:38;7.02;78.92
70830;SHT30;58451;51.550;7.208;2024-03-23T02:14:11;7.01;78.90
70830;SHT30;58451;51.550;7.208;2024-03-23T02:15:42;7.02;78.93
70830;SHT30;58451;51.550;7.208;2024-03-23T02:17:15;7.01;79.08
70830;SHT30;58451;51.550;7.208;2024-03-23T02:18:47;7.01;79.20
70830;SHT30;58451;51.550;7.208;2024-03-23T02:20:19;7.03;79.18
70830;SHT30;58451;51.550;7.208;2024-03-23T02:21:51;7.03;79.12
70830;SHT30;58451;51.550;7.208;2024-03-23T02:23:23;7.04;79.22
70830;SHT30;58451;51.550;7.208;2024-03-23T02:24:56;7.02;79.22
70830;SHT30;58451;51.550;7.208;2024-03-23T02:26:27;7.02;79.18
70830;SHT30;58451;51.550;7.208;2024-03-23T02:28:01;7.03;79.18
70830;SHT30;58451;51.550;7.208;2024-03-23T02:29:33;7.03;79.17
70830;SHT30;58451;51.550;7.208;2024-03-23T02:31:05;7.01;79.18
70830;SHT30;58451;51.550;7.208;2024-03-23T02:32:37;7.02;79.10
70830;SHT30;58451;51.550;7.208;2024-03-23T02:34:08;7.02;79.10
70830;SHT30;58451;51.550;7.208;2024-03-23T02:35:41;7.02;79.13
70830;SHT30;58451;51.550;7.208;2024-03-23T02:37:28;7.01;79.22
70830;SHT30;58451;51.550;7.208;2024-03-23T02:39:00;7.01;79.13
70830;SHT30;58451;51.550;7.208;2024-03-23T02:40:34;7.01;79.03
70830;SHT30;58451;51.550;7.208;2024-03-23T02:42:08;7.00;79.23
70830;SHT30;58451;51.550;7.208;2024-03-23T02:43:40;6.99;79.32
70830;SHT30;58451;51.550;7.208;2024-03-23T02:45:12;6.99;79.47
70830;SHT30;58451;51.550;7.208;2024-03-23T02:46:45;6.98;79.58
70830;SHT30;58451;51.550;7.208;2024-03-23T02:48:18;6.97;79.50
70830;SHT30;58451;51.550;7.208;2024-03-23T02:49:50;6.97;79.42
70830;SHT30;58451;51.550;7.208;2024-03-23T02:51:22;6.96;79.38
70830;SHT30;58451;51.550;7.208;2024-03-23T02:52:54;6.94;79.42
70830;SHT30;58451;51.550;7.208;2024-03-23T02:54:26;6.94;79.43
70830;SHT30;58451;51.550;7.208;2024-03-23T02:55:58;6.94;79.45
70830;SHT30;58451;51.550;7.208;2024-03-23T02:57:30;6.93;79.55
70830;SHT30;58451;51.550;7.208;2024-03-23T02:59:02;6.91;79.65
70830;SHT30;58451;51.550;7.208;2024-03-23T03:00:34;6.91;79.67
70830;SHT30;58451;51.550;7.208;2024-03-23T03:02:06;6.92;79.58
70830;SHT30;58451;51.550;7.208;2024-03-23T03:03:38;6.91;79.60
70830;SHT30;58451;51.550;7.208;2024-03-23T03:05:09;6.91;79.57
70830;SHT30;58451;51.550;7.208;2024-03-23T03:06:44;6.91;79.58
70830;SHT30;58451;51.550;7.208;2024-03-23T03:08:18;6.89;79.65
70830;SHT30;58451;51.550;7.208;2024-03-23T03:09:50;6.87;79.70
70830;SHT30;58451;51.550;7.208;2024-03-23T03:11:22;6.86;79.60
70830;SHT30;58451;51.550;7.208;2024-03-23T03:12:57;6.86;79.65
70830;SHT30;58451;51.550;7.208;2024-03-23T03:14:29;6.84;79.57
70830;SHT30;58451;51.550;7.208;2024-03-23T03:16:03;6.85;79.50
70830;SHT30;58451;51.550;7.208;2024-03-23T03:17:41;6.85;79.53
70830;SHT30;58451;51.550;7.208;2024-03-23T03:19:13;6.86;79.47
70830;SHT30;58451;51.550;7.208;2024-03-23T03:20:47;6.86;79.47
70830;SHT30;58451;51.550;7.208;2024-03-23T03:22:20;6.83;79.50
70830;SHT30;58451;51.550;7.208;2024-03-23T03:23:53;6.84;79.53
70830;SHT30;58451;51.550;7.208;2024-03-23T03:25:28;6.83;79.58
70830;SHT30;58451;51.550;7.208;2024-03-23T03:27:00;6.82;79.53
70830;SHT30;58451;51.550;7.208;2024-03-23T03:28:34;6.81;79.87
70830;SHT30;58451;51.550;7.208;2024-03-23T03:30:06;6.79;79.72
70830;SHT30;58451;51.550;7.208;2024-03-23T03:31:40;6.78;79.83
70830;SHT30;58451;51.550;7.208;2024-03-23T03:33:12;6.78;79.67
70830;SHT30;58451;51.550;7.208;2024-03-23T03:34:44;6.76;79.98
70830;SHT30;58451;51.550;7.208;2024-03-23T03:36:16;6.76;80.13
70830;SHT30;58451;51.550;7.208;2024-03-23T03:37:48;6.73;79.97
70830;SHT30;58451;51.550;7.208;2024-03-23T03:39:20;6.72;79.92
70830;SHT30;58451;51.550;7.208;2024-03-23T03:40:54;6.71;79.97
70830;SHT30;58451;51.550;7.208;2024-03-23T03:42:27;6.70;79.95
70830;SHT30;58451;51.550;7.208;2024-03-23T03:43:59;6.69;79.87
70830;SHT30;58451;51.550;7.208;2024-03-23T03:45:33;6.67;79.80
70830;SHT30;58451;51.550;7.208;2024-03-23T03:47:07;6.65;79.85
70830;SHT30;58451;51.550;7.208;2024-03-23T03:48:39;6.65;79.85
70830;SHT30;58451;51.550;7.208;2024-03-23T03:50:11;6.63;79.73
70830;SHT30;58451;51.550;7.208;2024-03-23T03:51:43;6.62;79.75
70830;SHT30;58451;51.550;7.208;2024-03-23T03:53:15;6.61;79.72
70830;SHT30;58451;51.550;7.208;2024-03-23T03:54:47;6.60;79.65
70830;SHT30;58451;51.550;7.208;2024-03-23T03:56:19;6.60;79.57
70830;SHT30;58451;51.550;7.208;2024-03-23T03:57:51;6.61;79.60
70830;SHT30;58451;51.550;7.208;2024-03-23T03:59:22;6.62;79.57
70830;SHT30;58451;51.550;7.208;2024-03-23T04:00:54;6.61;79.55
70830;SHT30;58451;51.550;7.208;2024-03-23T04:02:26;6.61;79.55
70830;SHT30;58451;51.550;7.208;2024-03-23T04:03:58;6.61;79.57
70830;SHT30;58451;51.550;7.208;2024-03-23T04:05:30;6.62;79.47
70830;SHT30;58451;51.550;7.208;2024-03-23T04:07:02;6.62;79.42
70830;SHT30;58451;51.550;7.208;2024-03-23T04:08:37;6.60;79.55
70830;SHT30;58451;51.550;7.208;2024-03-23T04:10:11;6.61;79.45
70830;SHT30;58451;51.550;7.208;2024-03-23T04:11:43;6.60;79.48
70830;SHT30;58451;51.550;7.208;2024-03-23T04:13:15;6.59;79.62
70830;SHT30;58451;51.550;7.208;2024-03-23T04:14:47;6.59;79.65
70830;SHT30;58451;51.550;7.208;2024-03-23T04:16:29;6.59;79.58
70830;SHT30;58451;51.550;7.208;2024-03-23T04:18:06;6.56;79.73
70830;SHT30;58451;51.550;7.208;2024-03-23T04:19:38;6.55;79.77
70830;SHT30;58451;51.550;7.208;2024-03-23T04:21:11;6.55;79.67
70830;SHT30;58451;51.550;7.208;2024-03-23T04:22:43;6.55;79.55
70830;SHT30;58451;51.550;7.208;2024-03-23T04:24:15;6.55;79.60
70830;SHT30;58451;51.550;7.208;2024-03-23T04:25:47;6.55;79.58
70830;SHT30;58451;51.550;7.208;2024-03-23T04:27:19;6.54;79.55
70830;SHT30;58451;51.550;7.208;2024-03-23T04:28:51;6.53;79.68
70830;SHT30;58451;51.550;7.208;2024-03-23T04:30:23;6.54;79.65
70830;SHT30;58451;51.550;7.208;2024-03-23T04:31:56;6.55;79.53
70830;SHT30;58451;51.550;7.208;2024-03-23T04:33:28;6.54;79.58
70830;SHT30;58451;51.550;7.208;2024-03-23T04:35:00;6.54;79.70
70830;SHT30;58451;51.550;7.208;2024-03-23T04:36:32;6.55;79.62
70830;SHT30;58451;51.550;7.208;2024-03-23T04:38:04;6.54;79.55
70830;SHT30;58451;51.550;7.208;2024-03-23T04:39:36;6.54;79.47
70830;SHT30;58451;51.550;7.208;2024-03-23T04:41:09;6.55;79.48
70830;SHT30;58451;51.550;7.208;2024-03-23T04:42:41;6.55;79.57
70830;SHT30;58451;51.550;7.208;2024-03-23T04:44:13;6.54;79.55
70830;SHT30;58451;51.550;7.208;2024-03-23T04:45:45;6.54;79.53
70830;SHT30;58451;51.550;7.208;2024-03-23T04:47:17;6.53;79.53
70830;SHT30;58451;51.550;7.208;2024-03-23T04:48:50;6.53;79.50
70830;SHT30;58451;51.550;7.208;2024-03-23T04:50:22;6.55;79.48
70830;SHT30;58451;51.550;7.208;2024-03-23T04:51:53;6.55;79.50
70830;SHT30;58451;51.550;7.208;2024-03-23T04:53:26;6.55;79.53
70830;SHT30;58451;51.550;7.208;2024-03-23T04:55:01;6.56;79.50
70830;SHT30;58451;51.550;7.208;2024-03-23T04:56:34;6.55;79.78
70830;SHT30;58451;51.550;7.208;2024-03-23T04:58:08;6.56;79.68
70830;SHT30;58451;51.550;7.208;2024-03-23T04:59:40;6.55;79.68
70830;SHT30;58451;51.550;7.208;2024-03-23T05:01:12;6.54;79.92
70830;SHT30;58451;51.550;7.208;2024-03-23T05:02:47;6.55;79.82
70830;SHT30;58451;51.550;7.208;2024-03-23T05:04:18;6.54;79.80
70830;SHT30;58451;51.550;7.208;2024-03-23T05:05:51;6.53;79.68
70830;SHT30;58451;51.550;7.208;2024-03-23T05:07:23;6.53;79.67
70830;SHT30;58451;51.550;7.208;2024-03-23T05:08:55;6.53;79.58
70830;SHT30;58451;51.550;7.208;2024-03-23T05:10:27;6.53;79.57
70830;SHT30;58451;51.550;7.208;2024-03-23T05:11:59;6.54;79.60
70830;SHT30;58451;51.550;7.208;2024-03-23T05:13:32;6.55;79.50
70830;SHT30;58451;51.550;7.208;2024-03-23T05:15:06;6.52;79.42
70830;SHT30;58451;51.550;7.208;2024-03-23T05:16:39;6.53;79.42
70830;SHT30;58451;51.550;7.208;2024-03-23T05:18:11;6.51;79.62
70830;SHT30;58451;51.550;7.208;2024-03-23T05:19:44;6.51;79.67
70830;SHT30;58451;51.550;7.208;2024-03-23T05:21:16;6.52;79.53
70830;SHT30;58451;51.550;7.208;2024-03-23T05:22:50;6.52;79.60
70830;SHT30;58451;51.550;7.208;2024-03-23T05:24:23;6.51;79.87
70830;SHT30;58451;51.550;7.208;2024-03-23T05:25:55;6.51;79.70
70830;SHT30;58451;51.550;7.208;2024-03-23T05:27:27;6.50;79.70
70830;SHT30;58451;51.550;7.208;2024-03-23T05:28:59;6.51;79.70
70830;SHT30;58451;51.550;7.208;2024-03-23T05:30:31;6.52;79.58
70830;SHT30;58451;51.550;7.208;2024-03-23T05:32:03;6.52;79.58
70830;SHT30;58451;51.550;7.208;2024-03-23T05:33:35;6.52;79.82
70830;SHT30;58451;51.550;7.208;2024-03-23T05:35:12;6.53;79.67
70830;SHT30;58451;51.550;7.208;2024-03-23T05:36:44;6.53;79.68
70830;SHT30;58451;51.550;7.208;2024-03-23T05:38:16;6.52;79.95
70830;SHT30;58451;51.550;7.208;2024-03-23T05:39:48;6.51;80.33
70830;SHT30;58451;51.550;7.208;2024-03-23T05:41:23;6.52;80.15
70830;SHT30;58451;51.550;7.208;2024-03-23T05:42:55;6.52;80.22
70830;SHT30;58451;51.550;7.208;2024-03-23T05:44:29;6.52;80.20
70830;SHT30;58451;51.550;7.208;2024-03-23T05:46:03;6.52;80.12
70830;SHT30;58451;51.550;7.208;2024-03-23T05:47:36;6.53;80.23
70830;SHT30;58451;51.550;7.208;2024-03-23T05:49:08;6.53;80.48
70830;SHT30;58451;51.550;7.208;2024-03-23T05:50:40;6.53;80.33
70830;SHT30;58451;51.550;7.208;2024-03-23T05:52:12;6.53;80.40
70830;SHT30;58451;51.550;7.208;2024-03-23T05:53:45;6.53;80.33
70830;SHT30;58451;51.550;7.208;2024-03-23T05:55:17;6.54;80.32
70830;SHT30;58451;51.550;7.208;2024-03-23T05:56:49;6.53;80.37
70830;SHT30;58451;51.550;7.208;2024-03-23T05:58:27;6.54;80.32
70830;SHT30;58451;51.550;7.208;2024-03-23T05:59:59;6.53;80.83
70830;SHT30;58451;51.550;7.208;2024-03-23T06:01:30;6.55;81.03
70830;SHT30;58451;51.550;7.208;2024-03-23T06:03:06;6.57;80.70
70830;SHT30;58451;51.550;7.208;2024-03-23T06:04:40;6.57;80.52
70830;SHT30;58451;51.550;7.208;2024-03-23T06:06:12;6.59;80.47
70830;SHT30;58451;51.550;7.208;2024-03-23T06:07:45;6.61;80.50
70830;SHT30;58451;51.550;7.208;2024-03-23T06:09:16;6.65;80.37
70830;SHT30;58451;51.550;7.208;2024-03-23T06:10:49;6.66;80.37
70830;SHT30;58451;51.550;7.208;2024-03-23T06:12:24;6.69;80.37
70830;SHT30;58451;51.550;7.208;2024-03-23T06:13:56;6.71;80.48
70830;SHT30;58451;51.550;7.208;2024-03-23T06:15:28;6.73;80.45
70830;SHT30;58451;51.550;7.208;2024-03-23T06:17:04;6.76;80.42
70830;SHT30;58451;51.550;7.208;2024-03-23T06:18:37;6.78;80.43
70830;SHT30;58451;51.550;7.208;2024-03-23T06:20:09;6.80;80.40
70830;SHT30;58451;51.550;7.208;2024-03-23T06:21:45;6.82;80.50
70830;SHT30;58451;51.550;7.208;2024-03-23T06:23:17;6.83;80.48
70830;SHT30;58451;51.550;7.208;2024-03-23T06:24:53;6.85;80.53
70830;SHT30;58451;51.550;7.208;2024-03-23T06:26:25;6.87;80.47
70830;SHT30;58451;51.550;7.208;2024-03-23T06:27:57;6.89;80.33
70830;SHT30;58451;51.550;7.208;2024-03-23T06:29:37;6.90;80.53
70830;SHT30;58451;51.550;7.208;2024-03-23T06:31:09;6.91;80.33
70830;SHT30;58451;51.550;7.208;2024-03-23T06:32:41;6.94;80.25
70830;SHT30;58451;51.550;7.208;2024-03-23T06:34:13;6.97;80.38
70830;SHT30;58451;51.550;7.208;2024-03-23T06:35:50;7.01;80.37
70830;SHT30;58451;51.550;7.208;2024-03-23T06:37:23;7.03;80.37
70830;SHT30;58451;51.550;7.208;2024-03-23T06:38:55;7.06;80.25
70830;SHT30;58451;51.550;7.208;2024-03-23T06:40:28;7.10;80.18
70830;SHT30;58451;51.550;7.208;2024-03-23T06:42:00;7.18;80.03
70830;SHT30;58451;51.550;7.208;2024-03-23T06:43:32;7.20;80.00
70830;SHT30;58451;51.550;7.208;2024-03-23T06:45:05;7.19;80.00
70830;SHT30;58451;51.550;7.208;2024-03-23T06:46:40;7.21;79.92
70830;SHT30;58451;51.550;7.208;2024-03-23T06:48:13;7.24;79.88
70830;SHT30;58451;51.550;7.208;2024-03-23T06:49:45;7.28;79.85
70830;SHT30;58451;51.550;7.208;2024-03-23T06:51:16;7.34;79.82
70830;SHT30;58451;51.550;7.208;2024-03-23T06:52:49;7.39;79.73
70830;SHT30;58451;51.550;7.208;2024-03-23T06:54:21;7.46;79.58
70830;SHT30;58451;51.550;7.208;2024-03-23T06:55:53;7.56;79.48
70830;SHT30;58451;51.550;7.208;2024-03-23T06:57:26;7.62;79.23
70830;SHT30;58451;51.550;7.208;2024-03-23T06:58:59;7.68;79.13
70830;SHT30;58451;51.550;7.208;2024-03-23T07:00:31;7.71;79.02
70830;SHT30;58451;51.550;7.208;2024-03-23T07:02:07;7.72;79.03
70830;SHT30;58451;51.550;7.208;2024-03-23T07:03:42;7.71;78.98
70830;SHT30;58451;51.550;7.208;2024-03-23T07:05:14;7.71;78.73
70830;SHT30;58451;51.550;7.208;2024-03-23T07:06:46;7.74;78.37
70830;SHT30;58451;51.550;7.208;2024-03-23T07:08:18;7.72;78.38
70830;SHT30;58451;51.550;7.208;2024-03-23T07:09:53;7.83;78.40
70830;SHT30;58451;51.550;7.208;2024-03-23T07:11:25;7.94;78.27
70830;SHT30;58451;51.550;7.208;2024-03-23T07:12:58;8.02;78.22
70830;SHT30;58451;51.550;7.208;2024-03-23T07:14:30;8.01;77.88
70830;SHT30;58451;51.550;7.208;2024-03-23T07:16:02;8.05;77.78
70830;SHT30;58451;51.550;7.208;2024-03-23T07:17:35;8.07;77.60
70830;SHT30;58451;51.550;7.208;2024-03-23T07:19:07;8.11;77.55
70830;SHT30;58451;51.550;7.208;2024-03-23T07:20:40;8.13;77.52
70830;SHT30;58451;51.550;7.208;2024-03-23T07:22:11;8.10;77.62
70830;SHT30;58451;51.550;7.208;2024-03-23T07:23:43;8.13;77.68
70830;SHT30;58451;51.550;7.208;2024-03-23T07:25:18;8.16;77.37
70830;SHT30;58451;51.550;7.208;2024-03-23T07:26:52;8.22;77.28
70830;SHT30;58451;51.550;7.208;2024-03-23T07:28:26;8.26;77.15
70830;SHT30;58451;51.550;7.208;2024-03-23T07:30:03;8.33;76.98
70830;SHT30;58451;51.550;7.208;2024-03-23T07:31:37;8.39;76.90
70830;SHT30;58451;51.550;7.208;2024-03-23T07:33:12;8.47;76.83
70830;SHT30;58451;51.550;7.208;2024-03-23T07:34:44;8.53;76.65
70830;SHT30;58451;51.550;7.208;2024-03-23T07:36:17;8.55;76.58
70830;SHT30;58451;51.550;7.208;2024-03-23T07:37:49;8.53;76.42
70830;SHT30;58451;51.550;7.208;2024-03-23T07:39:20;8.48;76.42
70830;SHT30;58451;51.550;7.208;2024-03-23T07:40:52;8.53;76.28
70830;SHT30;58451;51.550;7.208;2024-03-23T07:42:33;8.61;76.07
70830;SHT30;58451;51.550;7.208;2024-03-23T07:44:06;8.64;75.62
70830;SHT30;58451;51.550;7.208;2024-03-23T07:45:38;8.71;75.43
70830;SHT30;58451;51.550;7.208;2024-03-23T07:47:13;8.81;75.23
70830;SHT30;58451;51.550;7.208;2024-03-23T07:48:47;8.91;75.27
70830;SHT30;58451;51.550;7.208;2024-03-23T07:50:21;8.99;75.38
70830;SHT30;58451;51.550;7.208;2024-03-23T07:51:53;9.04;74.93
70830;SHT30;58451;51.550;7.208;2024-03-23T07:53:50;9.14;74.65
70830;SHT30;58451;51.550;7.208;2024-03-23T07:55:39;9.28;74.68
70830;SHT30;58451;51.550;7.208;2024-03-23T07:57:38;9.41;74.02
70830;SHT30;58451;51.550;7.208;2024-03-23T08:16:30;10.37;69.93
70830;SHT30;58451;51.550;7.208;2024-03-23T08:18:02;10.30;70.27
70830;SHT30;58451;51.550;7.208;2024-03-23T08:19:39;10.18;70.22
70830;SHT30;58451;51.550;7.208;2024-03-23T08:21:13;10.06;70.07
70830;SHT30;58451;51.550;7.208;2024-03-23T08:22:45;10.00;70.22
70830;SHT30;58451;51.550;7.208;2024-03-23T08:24:16;9.98;70.43
70830;SHT30;58451;51.550;7.208;2024-03-23T08:25:47;9.96;70.12
70830;SHT30;58451;51.550;7.208;2024-03-23T08:27:25;9.91;70.20
70830;SHT30;58451;51.550;7.208;2024-03-23T08:31:41;9.68;70.05
70830;SHT30;58451;51.550;7.208;2024-03-23T08:33:13;9.60;70.02
70830;SHT30;58451;51.550;7.208;2024-03-23T08:34:46;9.55;69.90
70830;SHT30;58451;51.550;7.208;2024-03-23T08:36:20;9.45;69.28
70830;SHT30;58451;51.550;7.208;2024-03-23T08:37:52;9.41;69.38
70830;SHT30;58451;51.550;7.208;2024-03-23T08:41:26;9.45;69.57
70830;SHT30;58451;51.550;7.208;2024-03-23T08:42:58;9.51;69.00
70830;SHT30;58451;51.550;7.208;2024-03-23T08:44:57;9.63;69.38
70830;SHT30;58451;51.550;7.208;2024-03-23T08:46:31;9.73;68.40
70830;SHT30;58451;51.550;7.208;2024-03-23T09:02:09;9.67;64.62
70830;SHT30;58451;51.550;7.208;2024-03-23T09:03:42;9.53;64.35
70830;SHT30;58451;51.550;7.208;2024-03-23T09:05:13;9.53;64.80
70830;SHT30;58451;51.550;7.208;2024-03-23T09:06:45;9.53;64.18
70830;SHT30;58451;51.550;7.208;2024-03-23T09:08:17;9.51;64.43
70830;SHT30;58451;51.550;7.208;2024-03-23T09:09:49;9.51;64.63
70830;SHT30;58451;51.550;7.208;2024-03-23T09:11:21;9.52;64.53
70830;SHT30;58451;51.550;7.208;2024-03-23T09:12:52;9.60;64.28
70830;SHT30;58451;51.550;7.208;2024-03-23T09:14:25;9.69;63.22
70830;SHT30;58451;51.550;7.208;2024-03-23T09:15:58;9.90;63.45
70830;SHT30;58451;51.550;7.208;2024-03-23T09:17:29;10.06;62.60
70830;SHT30;58451;51.550;7.208;2024-03-23T09:19:02;10.19;61.73
70830;SHT30;58451;51.550;7.208;2024-03-23T09:20:35;10.34;61.82
70830;SHT30;58451;51.550;7.208;2024-03-23T09:22:29;10.44;61.72
70830;SHT30;58451;51.550;7.208;2024-03-23T09:24:01;10.40;61.03
70830;SHT30;58451;51.550;7.208;2024-03-23T09:25:36;10.37;61.63
70830;SHT30;58451;51.550;7.208;2024-03-23T09:27:10;10.42;61.87
70830;SHT30;58451;51.550;7.208;2024-03-23T09:28:45;10.54;61.20
70830;SHT30;58451;51.550;7.208;2024-03-23T09:30:20;10.49;60.92
70830;SHT30;58451;51.550;7.208;2024-03-23T09:31:52;10.46;61.13
70830;SHT30;58451;51.550;7.208;2024-03-23T09:33:24;10.56;61.50
70830;SHT30;58451;51.550;7.208;2024-03-23T09:34:55;10.68;60.75
70830;SHT30;58451;51.550;7.208;2024-03-23T09:36:26;10.85;61.10
70830;SHT30;58451;51.550;7.208;2024-03-23T09:37:58;10.78;60.75
70830;SHT30;58451;51.550;7.208;2024-03-23T09:39:30;10.65;60.72
70830;SHT30;58451;51.550;7.208;2024-03-23T09:41:06;10.54;60.88
70830;SHT30;58451;51.550;7.208;2024-03-23T09:42:42;10.42;61.08
70830;SHT30;58451;51.550;7.208;2024-03-23T09:44:22;10.38;61.43
70830;SHT30;58451;51.550;7.208;2024-03-23T09:45:57;10.35;61.28
70830;SHT30;58451;51.550;7.208;2024-03-23T09:47:29;10.31;60.92
70830;SHT30;58451;51.550;7.208;2024-03-23T09:49:01;10.26;60.23
70830;SHT30;58451;51.550;7.208;2024-03-23T09:50:38;10.20;59.70
70830;SHT30;58451;51.550;7.208;2024-03-23T09:52:11;10.34;59.82
70830;SHT30;58451;51.550;7.208;2024-03-23T09:53:43;10.57;59.43
70830;SHT30;58451;51.550;7.208;2024-03-23T09:55:15;10.77;58.72
70830;SHT30;58451;51.550;7.208;2024-03-23T09:56:47;10.74;58.47
70830;SHT30;58451;51.550;7.208;2024-03-23T09:58:23;10.75;58.68
70830;SHT30;58451;51.550;7.208;2024-03-23T09:59:55;10.74;58.63
70830;SHT30;58451;51.550;7.208;2024-03-23T10:01:29;10.70;58.42
70830;SHT30;58451;51.550;7.208;2024-03-23T10:03:01;10.64;58.90
70830;SHT30;58451;51.550;7.208;2024-03-23T10:04:38;10.60;59.28
70830;SHT30;58451;51.550;7.208;2024-03-23T10:06:13;10.56;58.55
70830;SHT30;58451;51.550;7.208;2024-03-23T10:07:44;10.40;58.42
70830;SHT30;58451;51.550;7.208;2024-03-23T10:09:24;10.26;58.62
70830;SHT30;58451;51.550;7.208;2024-03-23T10:10:57;10.13;58.92
70830;SHT30;58451;51.550;7.208;2024-03-23T10:12:47;10.23;59.30
70830;SHT30;58451;51.550;7.208;2024-03-23T10:14:33;10.32;59.12
70830;SHT30;58451;51.550;7.208;2024-03-23T10:16:04;10.28;58.95
70830;SHT30;58451;51.550;7.208;2024-03-23T10:17:39;10.25;59.02
70830;SHT30;58451;51.550;7.208;2024-03-23T10:19:11;10.31;59.05
70830;SHT30;58451;51.550;7.208;2024-03-23T10:20:42;10.54;58.80
70830;SHT30;58451;51.550;7.208;2024-03-23T10:22:16;10.75;58.07
70830;SHT30;58451;51.550;7.208;2024-03-23T10:23:52;10.92;57.98
70830;SHT30;58451;51.550;7.208;2024-03-23T10:25:23;11.12;57.93
70830;SHT30;58451;51.550;7.208;2024-03-23T10:26:57;11.34;57.32
70830;SHT30;58451;51.550;7.208;2024-03-23T10:28:29;11.46;56.82
70830;SHT30;58451;51.550;7.208;2024-03-23T10:30:10;11.55;55.88
70830;SHT30;58451;51.550;7.208;2024-03-23T10:31:50;11.39;54.35
70830;SHT30;58451;51.550;7.208;2024-03-23T10:33:21;11.15;54.90
70830;SHT30;58451;51.550;7.208;2024-03-23T10:34:53;11.06;55.27
70830;SHT30;58451;51.550;7.208;2024-03-23T11:22:05;9.47;59.52
70830;SHT30;58451;51.550;7.208;2024-03-23T11:23:44;9.30;60.95
70830;SHT30;58451;51.550;7.208;2024-03-23T11:25:29;9.14;60.87
70830;SHT30;58451;51.550;7.208;2024-03-23T11:27:02;9.08;60.88
70830;SHT30;58451;51.550;7.208;2024-03-23T11:29:10;8.93;61.50
70830;SHT30;58451;51.550;7.208;2024-03-23T11:46:37;9.83;58.23
70830;SHT30;58451;51.550;7.208;2024-03-23T11:48:15;9.88;58.87
70830;SHT30;58451;51.550;7.208;2024-03-23T11:52:47;9.82;57.65
70830;SHT30;58451;51.550;7.208;2024-03-23T12:13:59;11.60;52.58
70830;SHT30;58451;51.550;7.208;2024-03-23T12:15:58;11.54;52.88
70830;SHT30;58451;51.550;7.208;2024-03-23T12:18:11;11.59;53.07
70830;SHT30;58451;51.550;7.208;2024-03-23T12:38:12;11.02;54.55
70830;SHT30;58451;51.550;7.208;2024-03-23T12:39:44;10.84;54.83
70830;SHT30;58451;51.550;7.208;2024-03-23T12:41:16;10.63;55.50
70830;SHT30;58451;51.550;7.208;2024-03-23T13:09:10;11.78;51.97
70830;SHT30;58451;51.550;7.208;2024-03-23T13:10:42;11.71;52.22
70830;SHT30;58451;51.550;7.208;2024-03-23T13:12:18;11.67;52.75
70830;SHT30;58451;51.550;7.208;2024-03-23T13:13:51;11.30;52.77
70830;SHT30;58451;51.550;7.208;2024-03-23T13:15:25;11.07;53.63
70830;SHT30;58451;51.550;7.208;2024-03-23T13:16:57;10.90;54.22
70830;SHT30;58451;51.550;7.208;2024-03-23T13:18:31;10.72;54.40
70830;SHT30;58451;51.550;7.208;2024-03-23T13:20:06;10.49;54.45
70830;SHT30;58451;51.550;7.208;2024-03-23T13:21:50;10.15;55.27
70830;SHT30;58451;51.550;7.208;2024-03-23T13:44:31;10.37;59.97
70830;SHT30;58451;51.550;7.208;2024-03-23T13:46:05;10.29;59.97
70830;SHT30;58451;51.550;7.208;2024-03-23T13:51:00;9.83;59.62
70830;SHT30;58451;51.550;7.208;2024-03-23T14:26:48;10.54;61.53
70830;SHT30;58451;51.550;7.208;2024-03-23T14:28:23;10.48;62.70
70830;SHT30;58451;51.550;7.208;2024-03-23T14:29:55;10.53;62.70
70830;SHT30;58451;51.550;7.208;2024-03-23T14:31:31;10.55;62.15
70830;SHT30;58451;51.550;7.208;2024-03-23T14:33:40;10.51;61.62
70830;SHT30;58451;51.550;7.208;2024-03-23T15:33:45;13.79;43.07
70830;SHT30;58451;51.550;7.208;2024-03-23T15:35:26;13.80;43.70